sensor_id;sensor_type;location;lat;lon;timestamp;temperature;humidity
837;DHT22;400;53.550;9.932;2023-06-14T00:00:45;17.60;99.90
837;DHT22;400;53.550;9.932;2023-06-14T00:03:14;17.60;99.90
837;DHT22;400;53.550;9.932;2023-06-14T00:05:43;17.60;99.90
837;DHT22;400;53.550;9.932;2023-06-14T00:08:13;17.60;99.90
837;DHT22;400;53.550;9.932;2023-06-14T00:10:41;17.60;99.90
837;DHT22;400;53.550;9.932;2023-06-14T00:13:08;17.70;99.90
837;DHT22;400;53.550;9.932;2023-06-14T00:15:35;17.70;99.90
837;DHT22;400;53.550;9.932;2023-06-14T00:18:03;17.70;99.90
837;DHT22;400;53.550;9.932;2023-06-14T00:20:32;17.70;99.90
837;DHT22;400;53.550;9.932;2023-06-14T00:22:59;17.60;99.90
837;DHT22;400;53.550;9.932;2023-06-14T00:25:26;17.60;99.90
837;DHT22;400;53.550;9.932;2023-06-14T00:27:55;17.50;99.90
837;DHT22;400;53.550;9.932;2023-06-14T00:30:23;17.50;99.90
837;DHT22;400;53.550;9.932;2023-06-14T00:32:50;17.50;99.90
837;DHT22;400;53.550;9.932;2023-06-14T00:35:17;17.50;99.90
837;DHT22;400;53.550;9.932;2023-06-14T00:37:44;17.50;99.90
837;DHT22;400;53.550;9.932;2023-06-14T00:40:11;17.50;99.90
837;DHT22;400;53.550;9.932;2023-06-14T00:42:38;17.40;99.90
837;DHT22;400;53.550;9.932;2023-06-14T00:45:07;17.40;99.90
837;DHT22;400;53.550;9.932;2023-06-14T00:47:35;17.40;99.90
837;DHT22;400;53.550;9.932;2023-06-14T00:50:06;17.40;99.90
837;DHT22;400;53.550;9.932;2023-06-14T00:52:34;17.30;99.90
837;DHT22;400;53.550;9.932;2023-06-14T00:55:03;17.30;99.90
837;DHT22;400;53.550;9.932;2023-06-14T00:57:34;17.30;99.90
837;DHT22;400;53.550;9.932;2023-06-14T01:00:10;17.20;99.90
837;DHT22;400;53.550;9.932;2023-06-14T01:02:42;17.30;99.90
837;DHT22;400;53.550;9.932;2023-06-14T01:05:11;17.30;99.90
837;DHT22;400;53.550;9.932;2023-06-14T01:07:46;17.30;99.90
837;DHT22;400;53.550;9.932;2023-06-14T01:10:26;17.30;99.90
837;DHT22;400;53.550;9.932;2023-06-14T01:13:01;17.20;99.90
837;DHT22;400;53.550;9.932;2023-06-14T01:15:31;17.20;99.90
837;DHT22;400;53.550;9.932;2023-06-14T01:18:00;17.20;99.90
837;DHT22;400;53.550;9.932;2023-06-14T01:20:30;17.10;99.90
837;DHT22;400;53.550;9.932;2023-06-14T01:22:59;17.10;99.90
837;DHT22;400;53.550;9.932;2023-06-14T01:25:26;17.20;99.90
837;DHT22;400;53.550;9.932;2023-06-14T01:27:57;17.20;99.90
837;DHT22;400;53.550;9.932;2023-06-14T01:30:25;17.10;99.90
837;DHT22;400;53.550;9.932;2023-06-14T01:32:54;17.10;99.90
837;DHT22;400;53.550;9.932;2023-06-14T01:35:21;17.10;99.90
837;DHT22;400;53.550;9.932;2023-06-14T01:37:49;17.10;99.90
837;DHT22;400;53.550;9.932;2023-06-14T01:40:18;17.00;99.90
837;DHT22;400;53.550;9.932;2023-06-14T01:42:47;17.00;99.90
837;DHT22;400;53.550;9.932;2023-06-14T01:45:15;17.00;99.90
837;DHT22;400;53.550;9.932;2023-06-14T01:47:43;16.90;99.90
837;DHT22;400;53.550;9.932;2023-06-14T01:50:11;16.90;99.90
837;DHT22;400;53.550;9.932;2023-06-14T01:52:38;16.90;99.90
837;DHT22;400;53.550;9.932;2023-06-14T01:55:06;16.90;99.90
837;DHT22;400;53.550;9.932;2023-06-14T01:57:35;16.80;99.90
837;DHT22;400;53.550;9.932;2023-06-14T02:00:02;16.80;99.90
837;DHT22;400;53.550;9.932;2023-06-14T02:02:31;16.80;99.90
837;DHT22;400;53.550;9.932;2023-06-14T02:04:58;16.80;99.90
837;DHT22;400;53.550;9.932;2023-06-14T02:07:25;16.80;99.90
837;DHT22;400;53.550;9.932;2023-06-14T02:09:51;16.70;99.90
837;DHT22;400;53.550;9.932;2023-06-14T02:12:18;16.80;99.90
837;DHT22;400;53.550;9.932;2023-06-14T02:14:47;16.80;99.90
837;DHT22;400;53.550;9.932;2023-06-14T02:17:14;16.80;99.90
837;DHT22;400;53.550;9.932;2023-06-14T02:19:41;16.70;99.90
837;DHT22;400;53.550;9.932;2023-06-14T02:22:09;16.70;99.90
837;DHT22;400;53.550;9.932;2023-06-14T02:24:36;16.60;99.90
837;DHT22;400;53.550;9.932;2023-06-14T02:27:03;16.60;99.90
837;DHT22;400;53.550;9.932;2023-06-14T02:29:30;16.60;99.90
837;DHT22;400;53.550;9.932;2023-06-14T02:31:58;16.50;99.90
837;DHT22;400;53.550;9.932;2023-06-14T02:34:24;16.50;99.90
837;DHT22;400;53.550;9.932;2023-06-14T02:36:52;16.60;99.90
837;DHT22;400;53.550;9.932;2023-06-14T02:39:18;16.60;99.90
837;DHT22;400;53.550;9.932;2023-06-14T02:41:49;16.60;99.90
837;DHT22;400;53.550;9.932;2023-06-14T02:44:17;16.50;99.90
837;DHT22;400;53.550;9.932;2023-06-14T02:46:44;16.50;99.90
837;DHT22;400;53.550;9.932;2023-06-14T02:49:13;16.50;99.90
837;DHT22;400;53.550;9.932;2023-06-14T02:51:40;16.50;99.90
837;DHT22;400;53.550;9.932;2023-06-14T02:54:08;16.50;99.90
837;DHT22;400;53.550;9.932;2023-06-14T02:56:34;16.50;99.90
837;DHT22;400;53.550;9.932;2023-06-14T02:59:01;16.40;99.90
837;DHT22;400;53.550;9.932;2023-06-14T03:01:29;16.40;99.90
837;DHT22;400;53.550;9.932;2023-06-14T03:04:00;16.30;99.90
837;DHT22;400;53.550;9.932;2023-06-14T03:06:28;16.40;99.90
837;DHT22;400;53.550;9.932;2023-06-14T03:08:56;16.50;99.90
837;DHT22;400;53.550;9.932;2023-06-14T03:11:25;16.50;99.90
837;DHT22;400;53.550;9.932;2023-06-14T03:13:52;16.50;99.90
837;DHT22;400;53.550;9.932;2023-06-14T03:16:19;16.50;99.90
837;DHT22;400;53.550;9.932;2023-06-14T03:18:47;16.50;99.90
837;DHT22;400;53.550;9.932;2023-06-14T03:21:14;16.50;99.90
837;DHT22;400;53.550;9.932;2023-06-14T03:23:42;16.40;99.90
837;DHT22;400;53.550;9.932;2023-06-14T03:26:10;16.40;99.90
837;DHT22;400;53.550;9.932;2023-06-14T03:28:38;16.40;99.90
837;DHT22;400;53.550;9.932;2023-06-14T03:31:05;16.40;99.90
837;DHT22;400;53.550;9.932;2023-06-14T03:33:32;16.30;99.90
837;DHT22;400;53.550;9.932;2023-06-14T03:35:59;16.30;99.90
837;DHT22;400;53.550;9.932;2023-06-14T03:38:26;16.20;99.90
837;DHT22;400;53.550;9.932;2023-06-14T03:40:54;16.20;99.90
837;DHT22;400;53.550;9.932;2023-06-14T03:43:21;16.30;99.90
837;DHT22;400;53.550;9.932;2023-06-14T03:45:48;16.30;99.90
837;DHT22;400;53.550;9.932;2023-06-14T03:48:14;16.30;99.90
837;DHT22;400;53.550;9.932;2023-06-14T03:50:41;16.30;99.90
837;DHT22;400;53.550;9.932;2023-06-14T03:53:10;16.30;99.90
837;DHT22;400;53.550;9.932;2023-06-14T03:55:37;16.20;99.90
837;DHT22;400;53.550;9.932;2023-06-14T03:58:06;16.30;99.90
837;DHT22;400;53.550;9.932;2023-06-14T04:00:33;16.30;99.90
837;DHT22;400;53.550;9.932;2023-06-14T04:03:01;16.30;99.90
837;DHT22;400;53.550;9.932;2023-06-14T04:05:28;16.30;99.90
837;DHT22;400;53.550;9.932;2023-06-14T04:07:55;16.30;99.90
837;DHT22;400;53.550;9.932;2023-06-14T04:10:22;16.40;99.90
837;DHT22;400;53.550;9.932;2023-06-14T04:12:49;16.50;99.90
837;DHT22;400;53.550;9.932;2023-06-14T04:15:18;16.50;99.90
837;DHT22;400;53.550;9.932;2023-06-14T04:17:45;16.60;99.90
837;DHT22;400;53.550;9.932;2023-06-14T04:20:15;16.60;99.90
837;DHT22;400;53.550;9.932;2023-06-14T04:22:44;16.70;99.90
837;DHT22;400;53.550;9.932;2023-06-14T04:25:11;16.80;99.90
837;DHT22;400;53.550;9.932;2023-06-14T04:27:38;16.90;99.90
837;DHT22;400;53.550;9.932;2023-06-14T04:30:06;17.00;99.90
837;DHT22;400;53.550;9.932;2023-06-14T04:32:34;17.00;99.90
837;DHT22;400;53.550;9.932;2023-06-14T04:35:05;17.10;99.90
837;DHT22;400;53.550;9.932;2023-06-14T04:37:34;17.10;99.90
837;DHT22;400;53.550;9.932;2023-06-14T04:40:06;17.20;99.90
837;DHT22;400;53.550;9.932;2023-06-14T04:42:33;17.20;99.90
837;DHT22;400;53.550;9.932;2023-06-14T04:45:04;17.30;99.90
837;DHT22;400;53.550;9.932;2023-06-14T04:47:34;17.40;99.90
837;DHT22;400;53.550;9.932;2023-06-14T04:50:03;17.40;99.90
837;DHT22;400;53.550;9.932;2023-06-14T04:52:30;17.50;99.90
837;DHT22;400;53.550;9.932;2023-06-14T04:54:57;17.50;99.90
837;DHT22;400;53.550;9.932;2023-06-14T04:57:25;17.60;99.90
837;DHT22;400;53.550;9.932;2023-06-14T04:59:52;17.60;99.90
837;DHT22;400;53.550;9.932;2023-06-14T05:02:21;17.70;99.90
837;DHT22;400;53.550;9.932;2023-06-14T05:04:50;17.80;99.90
837;DHT22;400;53.550;9.932;2023-06-14T05:07:17;17.80;99.90
837;DHT22;400;53.550;9.932;2023-06-14T05:09:45;18.00;99.90
837;DHT22;400;53.550;9.932;2023-06-14T05:12:12;18.00;99.90
837;DHT22;400;53.550;9.932;2023-06-14T05:14:39;18.10;99.90
837;DHT22;400;53.550;9.932;2023-06-14T05:17:06;18.10;99.90
837;DHT22;400;53.550;9.932;2023-06-14T05:19:34;18.20;99.90
837;DHT22;400;53.550;9.932;2023-06-14T05:22:07;18.20;99.90
837;DHT22;400;53.550;9.932;2023-06-14T05:24:39;18.20;99.90
837;DHT22;400;53.550;9.932;2023-06-14T05:27:07;18.30;99.90
837;DHT22;400;53.550;9.932;2023-06-14T05:29:35;18.40;99.90
837;DHT22;400;53.550;9.932;2023-06-14T05:32:03;18.40;99.90
837;DHT22;400;53.550;9.932;2023-06-14T05:34:32;18.50;99.90
837;DHT22;400;53.550;9.932;2023-06-14T05:37:01;18.60;99.90
837;DHT22;400;53.550;9.932;2023-06-14T05:39:39;18.60;99.90
837;DHT22;400;53.550;9.932;2023-06-14T05:42:14;18.70;99.90
837;DHT22;400;53.550;9.932;2023-06-14T05:44:44;18.70;99.90
837;DHT22;400;53.550;9.932;2023-06-14T05:47:12;18.70;99.90
837;DHT22;400;53.550;9.932;2023-06-14T05:49:40;18.80;99.90
837;DHT22;400;53.550;9.932;2023-06-14T05:52:09;18.80;99.90
837;DHT22;400;53.550;9.932;2023-06-14T05:54:41;18.80;99.90
837;DHT22;400;53.550;9.932;2023-06-14T05:57:11;18.90;99.90
837;DHT22;400;53.550;9.932;2023-06-14T05:59:40;18.90;99.90
837;DHT22;400;53.550;9.932;2023-06-14T06:02:12;18.90;99.90
837;DHT22;400;53.550;9.932;2023-06-14T06:04:42;19.00;99.90
837;DHT22;400;53.550;9.932;2023-06-14T06:07:14;19.00;99.90
837;DHT22;400;53.550;9.932;2023-06-14T06:09:46;19.00;99.90
837;DHT22;400;53.550;9.932;2023-06-14T06:12:14;19.00;99.90
837;DHT22;400;53.550;9.932;2023-06-14T06:14:45;19.10;99.90
837;DHT22;400;53.550;9.932;2023-06-14T06:17:14;19.10;99.90
837;DHT22;400;53.550;9.932;2023-06-14T06:19:47;19.20;99.90
837;DHT22;400;53.550;9.932;2023-06-14T06:22:16;19.20;99.90
837;DHT22;400;53.550;9.932;2023-06-14T06:24:49;19.30;99.90
837;DHT22;400;53.550;9.932;2023-06-14T06:27:17;19.30;99.90
837;DHT22;400;53.550;9.932;2023-06-14T06:29:47;19.30;99.90
837;DHT22;400;53.550;9.932;2023-06-14T06:32:15;19.40;99.90
837;DHT22;400;53.550;9.932;2023-06-14T06:34:42;19.40;99.90
837;DHT22;400;53.550;9.932;2023-06-14T06:37:09;19.40;99.90
837;DHT22;400;53.550;9.932;2023-06-14T06:39:38;19.50;99.90
837;DHT22;400;53.550;9.932;2023-06-14T06:42:08;19.50;99.90
837;DHT22;400;53.550;9.932;2023-06-14T06:44:37;19.50;99.90
837;DHT22;400;53.550;9.932;2023-06-14T06:47:18;19.50;99.90
837;DHT22;400;53.550;9.932;2023-06-14T06:49:45;19.50;99.90
837;DHT22;400;53.550;9.932;2023-06-14T06:52:16;19.60;99.90
837;DHT22;400;53.550;9.932;2023-06-14T06:54:53;19.60;99.90
837;DHT22;400;53.550;9.932;2023-06-14T06:57:35;19.60;99.90
837;DHT22;400;53.550;9.932;2023-06-14T07:00:06;19.70;99.90
837;DHT22;400;53.550;9.932;2023-06-14T07:02:35;19.70;99.90
837;DHT22;400;53.550;9.932;2023-06-14T07:05:05;19.70;99.90
837;DHT22;400;53.550;9.932;2023-06-14T07:07:36;19.80;99.90
837;DHT22;400;53.550;9.932;2023-06-14T07:10:06;19.80;99.90
837;DHT22;400;53.550;9.932;2023-06-14T07:12:40;19.80;99.90
837;DHT22;400;53.550;9.932;2023-06-14T07:15:15;19.80;99.90
837;DHT22;400;53.550;9.932;2023-06-14T07:17:44;19.80;99.90
837;DHT22;400;53.550;9.932;2023-06-14T07:20:12;19.80;99.90
837;DHT22;400;53.550;9.932;2023-06-14T07:22:40;19.80;99.90
837;DHT22;400;53.550;9.932;2023-06-14T07:25:08;19.80;99.90
837;DHT22;400;53.550;9.932;2023-06-14T07:27:39;19.80;99.90
837;DHT22;400;53.550;9.932;2023-06-14T07:30:14;19.90;99.90
837;DHT22;400;53.550;9.932;2023-06-14T07:32:47;19.90;99.90
837;DHT22;400;53.550;9.932;2023-06-14T07:35:19;20.00;99.90
837;DHT22;400;53.550;9.932;2023-06-14T07:37:48;20.00;99.90
837;DHT22;400;53.550;9.932;2023-06-14T07:40:15;20.10;99.90
837;DHT22;400;53.550;9.932;2023-06-14T07:42:43;20.10;99.90
837;DHT22;400;53.550;9.932;2023-06-14T07:45:14;20.10;99.90
837;DHT22;400;53.550;9.932;2023-06-14T07:47:43;20.20;99.90
837;DHT22;400;53.550;9.932;2023-06-14T07:50:13;20.30;99.90
837;DHT22;400;53.550;9.932;2023-06-14T07:52:43;20.30;99.90
837;DHT22;400;53.550;9.932;2023-06-14T07:55:13;20.40;99.70
837;DHT22;400;53.550;9.932;2023-06-14T07:57:48;20.40;99.50
837;DHT22;400;53.550;9.932;2023-06-14T08:00:18;20.40;99.50
837;DHT22;400;53.550;9.932;2023-06-14T08:02:46;20.40;99.40
837;DHT22;400;53.550;9.932;2023-06-14T08:05:13;20.50;99.00
837;DHT22;400;53.550;9.932;2023-06-14T08:07:43;20.50;99.10
837;DHT22;400;53.550;9.932;2023-06-14T08:10:16;20.60;99.20
837;DHT22;400;53.550;9.932;2023-06-14T08:12:48;20.60;98.70
837;DHT22;400;53.550;9.932;2023-06-14T08:15:15;20.60;98.40
837;DHT22;400;53.550;9.932;2023-06-14T08:17:42;20.70;98.60
837;DHT22;400;53.550;9.932;2023-06-14T08:20:10;20.70;98.30
837;DHT22;400;53.550;9.932;2023-06-14T08:22:39;20.70;98.30
837;DHT22;400;53.550;9.932;2023-06-14T08:25:08;20.70;98.30
837;DHT22;400;53.550;9.932;2023-06-14T08:27:36;20.70;98.20
837;DHT22;400;53.550;9.932;2023-06-14T08:30:06;20.80;98.20
837;DHT22;400;53.550;9.932;2023-06-14T08:32:34;20.90;98.20
837;DHT22;400;53.550;9.932;2023-06-14T08:35:01;20.90;98.00
837;DHT22;400;53.550;9.932;2023-06-14T08:37:30;21.00;97.90
837;DHT22;400;53.550;9.932;2023-06-14T08:39:59;21.00;97.60
837;DHT22;400;53.550;9.932;2023-06-14T08:42:26;20.90;97.30
837;DHT22;400;53.550;9.932;2023-06-14T08:44:53;21.00;97.30
837;DHT22;400;53.550;9.932;2023-06-14T08:47:21;21.10;97.20
837;DHT22;400;53.550;9.932;2023-06-14T08:49:59;21.10;97.00
837;DHT22;400;53.550;9.932;2023-06-14T08:52:33;21.00;96.50
837;DHT22;400;53.550;9.932;2023-06-14T08:55:13;21.10;96.50
837;DHT22;400;53.550;9.932;2023-06-14T08:57:42;21.10;96.40
837;DHT22;400;53.550;9.932;2023-06-14T09:00:14;21.20;96.20
837;DHT22;400;53.550;9.932;2023-06-14T09:02:50;21.30;96.20
837;DHT22;400;53.550;9.932;2023-06-14T09:05:24;21.40;96.20
837;DHT22;400;53.550;9.932;2023-06-14T09:07:51;21.40;95.80
837;DHT22;400;53.550;9.932;2023-06-14T09:10:21;21.50;95.50
837;DHT22;400;53.550;9.932;2023-06-14T09:12:51;21.50;95.70
837;DHT22;400;53.550;9.932;2023-06-14T09:15:19;21.50;95.00
837;DHT22;400;53.550;9.932;2023-06-14T09:17:51;21.50;94.80
837;DHT22;400;53.550;9.932;2023-06-14T09:20:26;21.60;94.90
837;DHT22;400;53.550;9.932;2023-06-14T09:23:00;21.70;94.60
837;DHT22;400;53.550;9.932;2023-06-14T09:25:43;21.80;94.60
837;DHT22;400;53.550;9.932;2023-06-14T09:28:13;21.80;94.50
837;DHT22;400;53.550;9.932;2023-06-14T09:30:45;21.90;93.80
837;DHT22;400;53.550;9.932;2023-06-14T09:33:19;22.00;94.10
837;DHT22;400;53.550;9.932;2023-06-14T09:35:51;22.10;93.40
837;DHT22;400;53.550;9.932;2023-06-14T09:38:21;22.20;93.60
837;DHT22;400;53.550;9.932;2023-06-14T09:40:54;22.20;93.80
837;DHT22;400;53.550;9.932;2023-06-14T09:43:29;22.30;93.70
837;DHT22;400;53.550;9.932;2023-06-14T09:46:02;22.40;94.00
837;DHT22;400;53.550;9.932;2023-06-14T09:48:33;22.40;93.90
837;DHT22;400;53.550;9.932;2023-06-14T09:51:04;22.50;93.40
837;DHT22;400;53.550;9.932;2023-06-14T09:53:36;22.50;93.20
837;DHT22;400;53.550;9.932;2023-06-14T09:56:06;22.50;93.10
837;DHT22;400;53.550;9.932;2023-06-14T09:58:36;22.60;93.50
837;DHT22;400;53.550;9.932;2023-06-14T10:01:10;22.60;93.50
837;DHT22;400;53.550;9.932;2023-06-14T10:03:44;22.50;93.40
837;DHT22;400;53.550;9.932;2023-06-14T10:06:15;22.30;93.40
837;DHT22;400;53.550;9.932;2023-06-14T10:08:49;22.20;93.70
837;DHT22;400;53.550;9.932;2023-06-14T10:11:23;22.20;93.90
837;DHT22;400;53.550;9.932;2023-06-14T10:13:58;22.40;93.90
837;DHT22;400;53.550;9.932;2023-06-14T10:16:30;22.30;93.50
837;DHT22;400;53.550;9.932;2023-06-14T10:19:05;22.40;93.80
837;DHT22;400;53.550;9.932;2023-06-14T10:21:41;22.50;93.50
837;DHT22;400;53.550;9.932;2023-06-14T10:24:16;22.40;93.50
837;DHT22;400;53.550;9.932;2023-06-14T10:26:53;22.40;93.50
837;DHT22;400;53.550;9.932;2023-06-14T10:29:25;22.40;93.40
837;DHT22;400;53.550;9.932;2023-06-14T10:31:59;22.40;93.20
837;DHT22;400;53.550;9.932;2023-06-14T10:34:28;22.50;93.10
837;DHT22;400;53.550;9.932;2023-06-14T10:37:03;22.60;93.10
837;DHT22;400;53.550;9.932;2023-06-14T10:39:31;22.80;93.10
837;DHT22;400;53.550;9.932;2023-06-14T10:42:02;22.80;92.80
837;DHT22;400;53.550;9.932;2023-06-14T10:44:40;23.00;92.60
837;DHT22;400;53.550;9.932;2023-06-14T10:47:09;23.10;92.30
837;DHT22;400;53.550;9.932;2023-06-14T10:49:40;23.00;91.70
837;DHT22;400;53.550;9.932;2023-06-14T10:52:11;23.10;91.70
837;DHT22;400;53.550;9.932;2023-06-14T10:55:05;23.00;92.00
837;DHT22;400;53.550;9.932;2023-06-14T10:57:35;23.00;91.70
837;DHT22;400;53.550;9.932;2023-06-14T11:00:05;23.10;91.60
837;DHT22;400;53.550;9.932;2023-06-14T11:02:53;23.20;91.30
837;DHT22;400;53.550;9.932;2023-06-14T11:05:28;23.40;91.10
837;DHT22;400;53.550;9.932;2023-06-14T11:08:22;23.40;91.00
837;DHT22;400;53.550;9.932;2023-06-14T11:10:54;23.30;90.80
837;DHT22;400;53.550;9.932;2023-06-14T11:13:27;23.50;90.10
837;DHT22;400;53.550;9.932;2023-06-14T11:15:56;23.70;89.60
837;DHT22;400;53.550;9.932;2023-06-14T11:18:24;23.80;89.20
837;DHT22;400;53.550;9.932;2023-06-14T11:21:00;23.80;89.00
837;DHT22;400;53.550;9.932;2023-06-14T11:23:28;23.90;89.30
837;DHT22;400;53.550;9.932;2023-06-14T11:25:55;23.90;90.10
837;DHT22;400;53.550;9.932;2023-06-14T11:28:23;23.70;90.10
837;DHT22;400;53.550;9.932;2023-06-14T11:31:01;23.60;90.40
837;DHT22;400;53.550;9.932;2023-06-14T11:33:29;23.60;90.40
837;DHT22;400;53.550;9.932;2023-06-14T11:35:58;23.50;90.30
837;DHT22;400;53.550;9.932;2023-06-14T11:38:25;23.50;90.30
837;DHT22;400;53.550;9.932;2023-06-14T11:40:58;23.60;90.40
837;DHT22;400;53.550;9.932;2023-06-14T11:43:28;23.80;90.10
837;DHT22;400;53.550;9.932;2023-06-14T11:46:00;23.80;89.90
837;DHT22;400;53.550;9.932;2023-06-14T11:48:39;23.80;90.10
837;DHT22;400;53.550;9.932;2023-06-14T11:51:08;23.80;90.10
837;DHT22;400;53.550;9.932;2023-06-14T11:53:38;23.80;89.80
837;DHT22;400;53.550;9.932;2023-06-14T11:56:06;23.80;89.60
837;DHT22;400;53.550;9.932;2023-06-14T11:58:33;23.90;89.40
837;DHT22;400;53.550;9.932;2023-06-14T12:01:07;24.00;89.70
837;DHT22;400;53.550;9.932;2023-06-14T12:03:50;23.90;88.50
837;DHT22;400;53.550;9.932;2023-06-14T12:06:35;23.90;88.70
837;DHT22;400;53.550;9.932;2023-06-14T12:09:11;24.00;89.30
837;DHT22;400;53.550;9.932;2023-06-14T12:11:47;24.00;89.50
837;DHT22;400;53.550;9.932;2023-06-14T12:14:20;23.90;90.00
837;DHT22;400;53.550;9.932;2023-06-14T12:17:05;24.10;90.10
837;DHT22;400;53.550;9.932;2023-06-14T12:19:43;24.10;90.20
837;DHT22;400;53.550;9.932;2023-06-14T12:22:13;24.20;89.10
837;DHT22;400;53.550;9.932;2023-06-14T12:24:43;24.30;89.20
837;DHT22;400;53.550;9.932;2023-06-14T12:27:13;24.40;89.20
837;DHT22;400;53.550;9.932;2023-06-14T12:29:46;24.30;88.60
837;DHT22;400;53.550;9.932;2023-06-14T12:32:13;24.20;88.60
837;DHT22;400;53.550;9.932;2023-06-14T12:34:40;24.20;88.10
837;DHT22;400;53.550;9.932;2023-06-14T12:37:07;24.30;86.40
837;DHT22;400;53.550;9.932;2023-06-14T12:39:37;24.30;86.80
837;DHT22;400;53.550;9.932;2023-06-14T12:42:05;24.30;87.50
837;DHT22;400;53.550;9.932;2023-06-14T12:44:34;24.20;88.10
837;DHT22;400;53.550;9.932;2023-06-14T12:47:07;24.10;88.30
837;DHT22;400;53.550;9.932;2023-06-14T12:49:34;24.30;88.30
837;DHT22;400;53.550;9.932;2023-06-14T12:52:04;24.40;87.90
837;DHT22;400;53.550;9.932;2023-06-14T12:54:42;24.40;87.40
837;DHT22;400;53.550;9.932;2023-06-14T12:57:14;24.50;87.40
837;DHT22;400;53.550;9.932;2023-06-14T12:59:41;24.60;87.30
837;DHT22;400;53.550;9.932;2023-06-14T13:02:13;24.60;86.80
837;DHT22;400;53.550;9.932;2023-06-14T13:04:40;24.70;86.60
837;DHT22;400;53.550;9.932;2023-06-14T13:07:07;24.70;85.80
837;DHT22;400;53.550;9.932;2023-06-14T13:09:38;24.80;84.20
837;DHT22;400;53.550;9.932;2023-06-14T13:12:08;24.90;83.60
837;DHT22;400;53.550;9.932;2023-06-14T13:14:36;25.00;83.20
837;DHT22;400;53.550;9.932;2023-06-14T13:17:04;25.20;82.50
837;DHT22;400;53.550;9.932;2023-06-14T13:19:31;25.20;83.10
837;DHT22;400;53.550;9.932;2023-06-14T13:21:58;25.10;83.80
837;DHT22;400;53.550;9.932;2023-06-14T13:24:26;25.00;84.10
837;DHT22;400;53.550;9.932;2023-06-14T13:26:55;24.90;83.90
837;DHT22;400;53.550;9.932;2023-06-14T13:29:25;24.80;84.80
837;DHT22;400;53.550;9.932;2023-06-14T13:31:56;24.80;84.60
837;DHT22;400;53.550;9.932;2023-06-14T13:34:25;24.80;83.70
837;DHT22;400;53.550;9.932;2023-06-14T13:36:54;24.60;83.10
837;DHT22;400;53.550;9.932;2023-06-14T13:39:27;24.60;83.10
837;DHT22;400;53.550;9.932;2023-06-14T13:42:02;24.70;83.50
837;DHT22;400;53.550;9.932;2023-06-14T13:44:31;24.70;82.90
837;DHT22;400;53.550;9.932;2023-06-14T13:46:59;24.70;83.80
837;DHT22;400;53.550;9.932;2023-06-14T13:49:28;24.50;85.00
837;DHT22;400;53.550;9.932;2023-06-14T13:51:59;24.50;85.50
837;DHT22;400;53.550;9.932;2023-06-14T13:54:26;24.40;84.10
837;DHT22;400;53.550;9.932;2023-06-14T13:56:54;24.20;82.10
837;DHT22;400;53.550;9.932;2023-06-14T13:59:22;24.20;81.40
837;DHT22;400;53.550;9.932;2023-06-14T14:01:49;24.30;81.20
837;DHT22;400;53.550;9.932;2023-06-14T14:04:19;24.40;82.50
837;DHT22;400;53.550;9.932;2023-06-14T14:06:48;24.30;83.00
837;DHT22;400;53.550;9.932;2023-06-14T14:09:19;24.40;83.50
837;DHT22;400;53.550;9.932;2023-06-14T14:11:49;24.50;83.30
837;DHT22;400;53.550;9.932;2023-06-14T14:14:16;24.50;83.40
837;DHT22;400;53.550;9.932;2023-06-14T14:16:47;24.60;84.00
837;DHT22;400;53.550;9.932;2023-06-14T14:19:18;24.50;83.40
837;DHT22;400;53.550;9.932;2023-06-14T14:21:49;24.50;83.10
837;DHT22;400;53.550;9.932;2023-06-14T14:24:21;24.50;83.10
837;DHT22;400;53.550;9.932;2023-06-14T14:26:53;24.50;82.90
837;DHT22;400;53.550;9.932;2023-06-14T14:29:31;24.50;81.80
837;DHT22;400;53.550;9.932;2023-06-14T14:32:11;24.40;81.50
837;DHT22;400;53.550;9.932;2023-06-14T14:34:47;24.30;80.80
837;DHT22;400;53.550;9.932;2023-06-14T14:37:19;24.40;81.00
837;DHT22;400;53.550;9.932;2023-06-14T14:39:49;24.40;82.00
837;DHT22;400;53.550;9.932;2023-06-14T14:42:18;24.40;80.70
837;DHT22;400;53.550;9.932;2023-06-14T14:44:45;24.50;81.50
837;DHT22;400;53.550;9.932;2023-06-14T14:47:16;24.50;81.60
837;DHT22;400;53.550;9.932;2023-06-14T14:49:46;24.60;81.10
837;DHT22;400;53.550;9.932;2023-06-14T14:52:15;24.60;81.20
837;DHT22;400;53.550;9.932;2023-06-14T14:54:42;24.50;81.40
837;DHT22;400;53.550;9.932;2023-06-14T14:57:09;24.40;81.50
837;DHT22;400;53.550;9.932;2023-06-14T14:59:36;24.30;81.10
837;DHT22;400;53.550;9.932;2023-06-14T15:02:03;24.30;81.30
837;DHT22;400;53.550;9.932;2023-06-14T15:04:32;24.10;81.20
837;DHT22;400;53.550;9.932;2023-06-14T15:06:59;24.00;81.10
837;DHT22;400;53.550;9.932;2023-06-14T15:09:26;24.00;81.40
837;DHT22;400;53.550;9.932;2023-06-14T15:11:59;24.20;81.60
837;DHT22;400;53.550;9.932;2023-06-14T15:14:31;24.20;80.50
837;DHT22;400;53.550;9.932;2023-06-14T15:17:06;24.30;80.10
837;DHT22;400;53.550;9.932;2023-06-14T15:19:40;24.40;80.40
837;DHT22;400;53.550;9.932;2023-06-14T15:22:11;24.60;79.80
837;DHT22;400;53.550;9.932;2023-06-14T15:24:45;24.70;79.60
837;DHT22;400;53.550;9.932;2023-06-14T15:27:12;24.80;79.40
837;DHT22;400;53.550;9.932;2023-06-14T15:29:41;24.90;78.80
837;DHT22;400;53.550;9.932;2023-06-14T15:32:11;25.00;78.90
837;DHT22;400;53.550;9.932;2023-06-14T15:34:40;24.90;78.70
837;DHT22;400;53.550;9.932;2023-06-14T15:37:07;24.80;77.60
837;DHT22;400;53.550;9.932;2023-06-14T15:39:35;24.90;77.60
837;DHT22;400;53.550;9.932;2023-06-14T15:42:02;25.00;77.50
837;DHT22;400;53.550;9.932;2023-06-14T15:44:29;25.00;77.40
837;DHT22;400;53.550;9.932;2023-06-14T15:46:57;24.90;77.50
837;DHT22;400;53.550;9.932;2023-06-14T15:49:23;24.90;77.10
837;DHT22;400;53.550;9.932;2023-06-14T15:51:52;24.70;76.80
837;DHT22;400;53.550;9.932;2023-06-14T15:54:19;24.70;76.80
837;DHT22;400;53.550;9.932;2023-06-14T15:56:46;24.70;77.20
837;DHT22;400;53.550;9.932;2023-06-14T15:59:23;24.90;76.80
837;DHT22;400;53.550;9.932;2023-06-14T16:01:58;25.90;75.60
837;DHT22;400;53.550;9.932;2023-06-14T16:04:31;27.10;73.60
837;DHT22;400;53.550;9.932;2023-06-14T16:07:09;28.00;69.00
837;DHT22;400;53.550;9.932;2023-06-14T16:09:38;28.40;67.10
837;DHT22;400;53.550;9.932;2023-06-14T16:12:06;29.10;65.20
837;DHT22;400;53.550;9.932;2023-06-14T16:14:34;29.10;63.30
837;DHT22;400;53.550;9.932;2023-06-14T16:17:01;29.80;62.60
837;DHT22;400;53.550;9.932;2023-06-14T16:19:28;30.30;60.80
837;DHT22;400;53.550;9.932;2023-06-14T16:22:07;31.10;59.60
837;DHT22;400;53.550;9.932;2023-06-14T16:24:38;31.50;57.90
837;DHT22;400;53.550;9.932;2023-06-14T16:30:28;31.40;55.60
837;DHT22;400;53.550;9.932;2023-06-14T16:32:56;31.70;55.20
837;DHT22;400;53.550;9.932;2023-06-14T16:35:23;32.30;54.20
837;DHT22;400;53.550;9.932;2023-06-14T16:37:52;32.50;53.20
837;DHT22;400;53.550;9.932;2023-06-14T16:40:19;32.00;53.50
837;DHT22;400;53.550;9.932;2023-06-14T16:42:46;32.80;52.30
837;DHT22;400;53.550;9.932;2023-06-14T16:45:15;33.10;51.70
837;DHT22;400;53.550;9.932;2023-06-14T16:47:42;33.40;50.90
837;DHT22;400;53.550;9.932;2023-06-14T16:50:12;33.70;49.50
837;DHT22;400;53.550;9.932;2023-06-14T16:52:39;34.00;48.90
837;DHT22;400;53.550;9.932;2023-06-14T16:55:08;34.50;48.10